Mayberry, Pennsylvania
Current Conditions -  °F | °C
As of 7:55 AM on Wednesday 26 Nov 2014 (Local Time) from KHZL Reporting Station
Light Snow Light Snow  
Wind Chill: 29°   Ceiling: 1000
Heat Index: 34°   Visibility: 1.7mi
Dew Point: 32°   Wind: 6mph
Humidity: 93%   Direction: 20°NNE
Pressure: 30.1"   Gusts: NA
Location:  40.8983°N, 76.4239°W
Report Text: KHZL 261255Z AUTO 02005KT 1 3/4SM -SN BKN010 OVC016 01/00 A3010 RMK AO2
Loading
Personal Weather Stations






























Interactive Weather Map New forecast layout! Learn more

10-Day Weather Forecast

Advertisements
Track Severe Weather on mobile